Time;durP1;ratioP1;P1;durP2;ratioP2;P2;SDS_P1;SDS_P2;PMS_P1;PMS_P2;Temp;Humidity;BMP_temperature;BMP_pressure;BME280_temperature;BME280_humidity;BME280_pressure;Samples;Min_cycle;Max_cycle;Signal;HPM_P1;HPM_P2
2024/02/21 00:00:25;;;;;;;;;;;8.30;99.90;;;;;;4988072;28;19967;-81
2024/02/21 00:02:51;;;;;;;;;;;8.30;99.90;;;;;;4978779;28;19913;-82
2024/02/21 00:05:17;;;;;;;;;;;8.30;99.90;;;;;;4993650;28;19909;-81
2024/02/21 00:07:42;;;;;;;;;;;8.30;99.90;;;;;;4982702;28;20044;-82
2024/02/21 00:10:09;;;;;;;;;;;8.30;99.90;;;;;;4955636;28;19914;-81
2024/02/21 00:12:34;;;;;;;;;;;8.30;99.90;;;;;;4974677;28;19917;-81
2024/02/21 00:15:00;;;;;;;;;;;8.20;99.90;;;;;;4990342;28;19909;-81
2024/02/21 00:17:26;;;;;;;;;;;8.30;99.90;;;;;;4967846;28;19928;-81
2024/02/21 00:19:51;;;;;;;;;;;8.30;99.90;;;;;;4973835;28;19921;-82
2024/02/21 00:22:17;;;;;;;;;;;8.30;99.90;;;;;;4973958;28;19914;-82
2024/02/21 00:24:43;;;;;;;;;;;8.30;99.90;;;;;;4993145;28;19914;-81
2024/02/21 00:27:11;;;;;;;;;;;8.30;99.90;;;;;;5012995;28;19910;-83
2024/02/21 00:29:36;;;;;;;;;;;8.30;99.90;;;;;;5013219;28;19922;-81
2024/02/21 00:32:02;;;;;;;;;;;8.30;99.90;;;;;;4996639;28;19909;-82
2024/02/21 00:34:28;;;;;;;;;;;8.40;99.90;;;;;;4998252;28;19924;-81
2024/02/21 00:36:53;;;;;;;;;;;8.30;99.90;;;;;;4993283;28;19972;-81
2024/02/21 00:39:19;;;;;;;;;;;8.30;99.90;;;;;;4999547;28;19913;-81
2024/02/21 00:41:45;;;;;;;;;;;8.30;99.90;;;;;;5002274;28;19981;-82
2024/02/21 00:44:10;;;;;;;;;;;8.30;99.90;;;;;;5019228;28;19988;-82
2024/02/21 00:46:38;;;;;;;;;;;8.30;99.90;;;;;;5000520;28;20257;-81
2024/02/21 00:49:04;;;;;;;;;;;8.30;99.90;;;;;;4984954;28;19921;-82
2024/02/21 00:51:30;;;;;;;;;;;8.30;99.90;;;;;;5004496;28;19948;-81
2024/02/21 00:53:55;;;;;;;;;;;8.30;99.90;;;;;;4981263;28;19908;-81
2024/02/21 00:56:21;;;;;;;;;;;8.30;99.90;;;;;;4982379;28;19921;-81
2024/02/21 00:58:47;;;;;;;;;;;8.30;99.90;;;;;;4980126;28;20286;-81
2024/02/21 01:01:13;;;;;;;;;;;8.30;99.90;;;;;;4973059;28;19926;-81
2024/02/21 01:03:39;;;;;;;;;;;8.30;99.90;;;;;;4985613;28;19918;-81
2024/02/21 01:06:06;;;;;;;;;;;8.40;99.90;;;;;;4964999;28;20450;-81
2024/02/21 01:08:32;;;;;;;;;;;8.30;99.90;;;;;;4978601;28;20011;-81
2024/02/21 01:10:57;;;;;;;;;;;8.30;99.90;;;;;;4964938;28;19925;-81
2024/02/21 01:13:23;;;;;;;;;;;8.40;99.90;;;;;;4978705;28;19933;-81
2024/02/21 01:15:49;;;;;;;;;;;8.40;99.90;;;;;;4980528;28;19924;-81
2024/02/21 01:18:14;;;;;;;;;;;8.40;99.90;;;;;;4993136;28;19926;-80
2024/02/21 01:20:40;;;;;;;;;;;8.40;99.90;;;;;;4969375;28;19986;-81
2024/02/21 01:23:06;;;;;;;;;;;8.40;99.90;;;;;;4985550;28;20005;-81
2024/02/21 01:25:31;;;;;;;;;;;8.40;99.90;;;;;;4971355;28;20325;-80
2024/02/21 01:27:57;;;;;;;;;;;8.40;99.90;;;;;;4997607;28;20000;-80
2024/02/21 01:30:23;;;;;;;;;;;8.40;99.90;;;;;;4996015;28;19944;-81
2024/02/21 01:32:49;;;;;;;;;;;8.40;99.90;;;;;;4999078;28;19918;-81
2024/02/21 01:35:14;;;;;;;;;;;8.40;99.90;;;;;;4994739;28;19922;-81
2024/02/21 01:37:40;;;;;;;;;;;8.40;99.90;;;;;;4999458;28;19980;-81
2024/02/21 01:40:06;;;;;;;;;;;8.40;99.90;;;;;;4998170;28;19902;-81
2024/02/21 01:42:31;;;;;;;;;;;8.50;99.90;;;;;;4997776;28;19904;-81
2024/02/21 01:44:57;;;;;;;;;;;8.50;99.90;;;;;;4999950;28;19908;-82
2024/02/21 01:47:23;;;;;;;;;;;8.50;99.90;;;;;;4980385;28;19922;-81
2024/02/21 01:49:49;;;;;;;;;;;8.40;99.90;;;;;;5000933;28;19917;-81
2024/02/21 01:52:16;;;;;;;;;;;8.40;99.90;;;;;;5007245;28;19916;-81
2024/02/21 01:54:42;;;;;;;;;;;8.50;99.90;;;;;;4985304;28;19909;-81
2024/02/21 01:57:07;;;;;;;;;;;8.50;99.90;;;;;;4978513;28;19909;-81
2024/02/21 01:59:33;;;;;;;;;;;8.50;99.90;;;;;;4996712;28;19918;-81
2024/02/21 02:01:59;;;;;;;;;;;8.50;99.90;;;;;;4991480;28;19945;-81
2024/02/21 02:04:24;;;;;;;;;;;8.50;99.90;;;;;;4993777;28;19905;-81
2024/02/21 02:06:50;;;;;;;;;;;8.50;99.90;;;;;;4992014;28;20322;-81
2024/02/21 02:09:16;;;;;;;;;;;8.50;99.90;;;;;;4978486;28;20588;-80
2024/02/21 02:11:44;;;;;;;;;;;8.50;99.90;;;;;;4976228;28;19902;-81
2024/02/21 02:14:10;;;;;;;;;;;8.50;99.90;;;;;;4989560;28;19921;-80
2024/02/21 02:16:35;;;;;;;;;;;8.50;99.90;;;;;;4972796;28;19913;-80
2024/02/21 02:19:01;;;;;;;;;;;8.50;99.90;;;;;;4973544;28;19980;-81
2024/02/21 02:21:29;;;;;;;;;;;8.50;99.90;;;;;;4962758;28;19914;-81
2024/02/21 02:23:55;;;;;;;;;;;8.50;99.90;;;;;;4979964;28;20377;-81
2024/02/21 02:26:22;;;;;;;;;;;8.50;99.90;;;;;;4984538;28;19913;-80
2024/02/21 02:28:48;;;;;;;;;;;8.50;99.90;;;;;;4992572;28;19921;-80
2024/02/21 02:31:13;;;;;;;;;;;8.50;99.90;;;;;;4990486;28;20320;-81
2024/02/21 02:33:39;;;;;;;;;;;8.50;99.90;;;;;;4958289;28;19913;-81
2024/02/21 02:36:05;;;;;;;;;;;8.50;99.90;;;;;;4969985;28;20307;-80
2024/02/21 02:38:31;;;;;;;;;;;8.50;99.90;;;;;;4971198;28;19964;-82
2024/02/21 02:40:56;;;;;;;;;;;8.50;99.90;;;;;;4988935;28;19913;-81
2024/02/21 02:43:22;;;;;;;;;;;8.50;99.90;;;;;;4980240;28;19917;-80
2024/02/21 02:45:47;;;;;;;;;;;8.50;99.90;;;;;;5007424;28;19953;-79
2024/02/21 02:48:14;;;;;;;;;;;8.50;99.90;;;;;;4992402;28;19953;-82
2024/02/21 02:50:39;;;;;;;;;;;8.60;99.90;;;;;;4982601;28;19913;-81
2024/02/21 02:53:05;;;;;;;;;;;8.50;99.90;;;;;;4984213;28;19908;-80
2024/02/21 02:55:31;;;;;;;;;;;8.50;99.90;;;;;;4980933;28;19961;-81
2024/02/21 02:57:56;;;;;;;;;;;8.60;99.90;;;;;;4999448;28;19902;-80
2024/02/21 03:00:22;;;;;;;;;;;8.60;99.90;;;;;;4969098;28;19902;-80
2024/02/21 03:02:48;;;;;;;;;;;8.60;99.90;;;;;;4985923;28;19979;-82
2024/02/21 03:05:20;;;;;;;;;;;8.60;99.90;;;;;;4994754;28;19924;-82
2024/02/21 03:07:46;;;;;;;;;;;8.60;99.90;;;;;;4996832;28;19917;-81
2024/02/21 03:10:12;;;;;;;;;;;8.60;99.90;;;;;;4998143;28;19973;-81
2024/02/21 03:12:37;;;;;;;;;;;8.60;99.90;;;;;;5007722;28;20575;-80
2024/02/21 03:15:04;;;;;;;;;;;8.60;99.90;;;;;;4993002;28;19918;-80
2024/02/21 03:17:30;;;;;;;;;;;8.60;99.90;;;;;;4967599;28;19913;-81
2024/02/21 03:19:55;;;;;;;;;;;8.60;99.90;;;;;;4996962;28;19924;-80
2024/02/21 03:22:24;;;;;;;;;;;8.70;99.90;;;;;;4981143;28;19918;-80
2024/02/21 03:24:49;;;;;;;;;;;8.70;99.90;;;;;;4994111;28;19918;-80
2024/02/21 03:27:15;;;;;;;;;;;8.70;99.90;;;;;;5004626;28;19924;-80
2024/02/21 03:29:41;;;;;;;;;;;8.70;99.90;;;;;;5009271;28;19925;-80
2024/02/21 03:32:07;;;;;;;;;;;8.70;99.90;;;;;;4979538;28;19925;-81
2024/02/21 03:34:34;;;;;;;;;;;8.70;99.90;;;;;;4977852;28;19928;-80
2024/02/21 03:37:00;;;;;;;;;;;8.70;99.90;;;;;;4978622;28;19980;-80
2024/02/21 03:39:25;;;;;;;;;;;8.70;99.90;;;;;;4978689;28;19922;-80
2024/02/21 03:41:51;;;;;;;;;;;8.70;99.90;;;;;;5013147;28;19918;-80
2024/02/21 03:44:17;;;;;;;;;;;8.70;99.90;;;;;;5000238;28;19940;-81
2024/02/21 03:46:43;;;;;;;;;;;8.70;99.90;;;;;;4976942;28;19922;-81
2024/02/21 03:49:08;;;;;;;;;;;8.70;99.90;;;;;;4977918;28;19928;-81
2024/02/21 03:51:34;;;;;;;;;;;8.70;99.90;;;;;;5003294;28;20375;-81
2024/02/21 03:54:00;;;;;;;;;;;8.70;99.90;;;;;;4998432;28;19917;-80
2024/02/21 03:56:25;;;;;;;;;;;8.70;99.90;;;;;;4992701;28;19949;-81
2024/02/21 03:58:51;;;;;;;;;;;8.70;99.90;;;;;;5011027;28;19945;-81
2024/02/21 04:01:17;;;;;;;;;;;8.70;99.90;;;;;;4983680;28;20009;-81
2024/02/21 04:03:45;;;;;;;;;;;8.70;99.90;;;;;;4995256;28;19955;-80
2024/02/21 04:06:11;;;;;;;;;;;8.70;99.90;;;;;;4979019;28;20390;-81
2024/02/21 04:08:36;;;;;;;;;;;8.70;99.90;;;;;;4964182;28;19928;-82
2024/02/21 04:11:02;;;;;;;;;;;8.70;99.90;;;;;;4984425;28;19979;-80
2024/02/21 04:13:28;;;;;;;;;;;8.70;99.90;;;;;;4997728;28;19913;-81
2024/02/21 04:15:54;;;;;;;;;;;8.70;99.90;;;;;;4996181;28;20004;-79
2024/02/21 04:18:19;;;;;;;;;;;8.70;99.90;;;;;;4988080;28;19898;-81
2024/02/21 04:20:45;;;;;;;;;;;8.70;99.90;;;;;;4962802;28;19918;-81
2024/02/21 04:23:11;;;;;;;;;;;8.70;99.90;;;;;;4969066;28;19926;-80
2024/02/21 04:25:37;;;;;;;;;;;8.70;99.90;;;;;;4979955;28;19916;-81
2024/02/21 04:28:03;;;;;;;;;;;8.70;99.90;;;;;;4981578;28;19941;-81
2024/02/21 04:30:29;;;;;;;;;;;8.70;99.90;;;;;;4983921;28;19973;-81
2024/02/21 04:32:54;;;;;;;;;;;8.70;99.90;;;;;;4983566;28;19965;-80
2024/02/21 04:35:20;;;;;;;;;;;8.70;99.90;;;;;;4988352;28;19918;-80
2024/02/21 04:37:46;;;;;;;;;;;8.70;99.90;;;;;;4972832;28;19965;-79
2024/02/21 04:40:11;;;;;;;;;;;8.70;99.90;;;;;;4986755;28;19968;-80
2024/02/21 04:42:37;;;;;;;;;;;8.80;99.90;;;;;;5000585;28;19933;-81
2024/02/21 04:45:03;;;;;;;;;;;8.70;99.90;;;;;;4993217;28;19926;-81
2024/02/21 04:47:29;;;;;;;;;;;8.80;99.90;;;;;;4975675;28;19918;-82
2024/02/21 04:49:55;;;;;;;;;;;8.80;99.90;;;;;;4979290;28;19933;-81
2024/02/21 04:52:21;;;;;;;;;;;8.80;99.90;;;;;;4989897;28;19914;-82
2024/02/21 04:54:47;;;;;;;;;;;8.80;99.90;;;;;;4991150;28;19918;-82
2024/02/21 04:57:16;;;;;;;;;;;8.80;99.90;;;;;;4997402;28;19933;-82
2024/02/21 04:59:45;;;;;;;;;;;8.80;99.90;;;;;;4997625;28;19918;-81
2024/02/21 05:02:11;;;;;;;;;;;8.80;99.90;;;;;;4995850;28;19981;-82
2024/02/21 05:04:38;;;;;;;;;;;8.80;99.90;;;;;;5000190;28;19902;-82
2024/02/21 05:07:04;;;;;;;;;;;8.70;99.90;;;;;;4991415;28;19928;-81
2024/02/21 05:09:29;;;;;;;;;;;8.80;99.90;;;;;;4960089;28;20261;-82
2024/02/21 05:11:55;;;;;;;;;;;8.80;99.90;;;;;;4994939;28;19949;-82
2024/02/21 05:14:21;;;;;;;;;;;8.80;99.90;;;;;;4979720;28;19938;-81
2024/02/21 05:16:49;;;;;;;;;;;8.80;99.90;;;;;;4984648;28;19918;-81
2024/02/21 05:19:15;;;;;;;;;;;8.80;99.90;;;;;;4970719;28;20345;-82
2024/02/21 05:21:40;;;;;;;;;;;8.80;99.90;;;;;;4971463;28;19981;-81
2024/02/21 05:24:06;;;;;;;;;;;8.80;99.90;;;;;;4954647;28;19917;-81
2024/02/21 05:26:31;;;;;;;;;;;8.80;99.90;;;;;;4973753;28;19929;-81
2024/02/21 05:28:59;;;;;;;;;;;8.80;99.90;;;;;;4967963;28;19922;-81
2024/02/21 05:31:24;;;;;;;;;;;8.80;99.90;;;;;;4965971;28;19925;-82
2024/02/21 05:33:50;;;;;;;;;;;8.80;99.90;;;;;;4969170;28;19929;-82
2024/02/21 05:36:16;;;;;;;;;;;8.80;99.90;;;;;;5012139;28;19957;-82
2024/02/21 05:38:41;;;;;;;;;;;8.80;99.90;;;;;;4992218;28;19922;-82
2024/02/21 05:41:07;;;;;;;;;;;8.80;99.90;;;;;;4984334;28;19914;-81
2024/02/21 05:43:33;;;;;;;;;;;8.90;99.90;;;;;;4971345;28;19899;-82
2024/02/21 05:45:58;;;;;;;;;;;8.80;99.90;;;;;;4967116;28;19914;-81
2024/02/21 05:48:24;;;;;;;;;;;8.80;99.90;;;;;;4973724;28;19921;-80
2024/02/21 05:50:50;;;;;;;;;;;8.80;99.90;;;;;;4957119;28;19946;-81
2024/02/21 05:53:15;;;;;;;;;;;8.90;99.90;;;;;;4985448;28;20001;-81
2024/02/21 05:55:41;;;;;;;;;;;8.90;99.90;;;;;;4968756;28;19978;-80
2024/02/21 05:58:07;;;;;;;;;;;8.80;99.90;;;;;;4984468;28;19920;-80
2024/02/21 06:00:33;;;;;;;;;;;8.90;99.90;;;;;;4970273;28;19989;-81
2024/02/21 06:02:58;;;;;;;;;;;8.90;99.90;;;;;;4983029;28;19950;-81
2024/02/21 06:05:25;;;;;;;;;;;8.90;99.90;;;;;;4964378;28;19968;-80
2024/02/21 06:07:51;;;;;;;;;;;8.90;99.90;;;;;;4986478;28;19922;-80
2024/02/21 06:10:16;;;;;;;;;;;8.90;99.90;;;;;;4967429;28;19922;-79
2024/02/21 06:12:42;;;;;;;;;;;8.90;99.90;;;;;;4981659;28;19914;-80
2024/02/21 06:15:08;;;;;;;;;;;8.90;99.90;;;;;;4974564;28;19925;-80
2024/02/21 06:17:34;;;;;;;;;;;8.90;99.90;;;;;;4971551;28;19921;-81
2024/02/21 06:19:59;;;;;;;;;;;8.90;99.90;;;;;;4978185;28;19914;-81
2024/02/21 06:22:25;;;;;;;;;;;8.90;99.90;;;;;;4993071;28;19926;-81
2024/02/21 06:24:53;;;;;;;;;;;8.90;99.90;;;;;;4993890;28;19941;-80
2024/02/21 06:27:19;;;;;;;;;;;8.90;99.90;;;;;;4978371;28;19945;-80
2024/02/21 06:29:45;;;;;;;;;;;8.90;99.90;;;;;;4980711;28;19914;-80
2024/02/21 06:32:10;;;;;;;;;;;8.90;99.90;;;;;;4998047;28;20001;-80
2024/02/21 06:34:36;;;;;;;;;;;8.90;99.90;;;;;;4998731;28;19965;-82
2024/02/21 06:37:02;;;;;;;;;;;8.90;99.90;;;;;;4981891;28;19930;-81
2024/02/21 06:39:29;;;;;;;;;;;8.90;99.90;;;;;;4997273;28;19922;-82
2024/02/21 06:41:59;;;;;;;;;;;8.90;99.90;;;;;;4977057;28;20327;-82
2024/02/21 06:44:25;;;;;;;;;;;8.90;99.90;;;;;;4989103;28;19929;-81
2024/02/21 06:46:51;;;;;;;;;;;8.90;99.90;;;;;;4971417;28;19918;-80
2024/02/21 06:49:17;;;;;;;;;;;8.90;99.90;;;;;;4994353;28;19973;-81
2024/02/21 06:51:43;;;;;;;;;;;8.90;99.90;;;;;;4974187;28;19948;-82
2024/02/21 06:54:09;;;;;;;;;;;8.90;99.90;;;;;;4971374;28;19918;-81
2024/02/21 06:56:35;;;;;;;;;;;8.90;99.90;;;;;;4969830;28;20417;-80
2024/02/21 06:59:01;;;;;;;;;;;8.90;99.90;;;;;;4971811;28;19918;-80
2024/02/21 07:01:26;;;;;;;;;;;8.90;99.90;;;;;;4985933;28;20354;-80
2024/02/21 07:03:52;;;;;;;;;;;8.90;99.90;;;;;;5001129;28;20322;-82
2024/02/21 07:06:18;;;;;;;;;;;8.90;99.90;;;;;;4989564;28;19932;-81
2024/02/21 07:08:43;;;;;;;;;;;8.90;99.90;;;;;;4980205;28;19906;-81
2024/02/21 07:11:09;;;;;;;;;;;8.90;99.90;;;;;;4990136;28;19936;-81
2024/02/21 07:13:35;;;;;;;;;;;8.90;99.90;;;;;;4993401;28;19921;-80
2024/02/21 07:16:00;;;;;;;;;;;8.90;99.90;;;;;;4991687;28;19918;-81
2024/02/21 07:18:29;;;;;;;;;;;8.90;99.90;;;;;;4991356;28;19925;-80
2024/02/21 07:20:55;;;;;;;;;;;8.90;99.90;;;;;;4965277;28;20013;-80
2024/02/21 07:23:21;;;;;;;;;;;8.90;99.90;;;;;;4986829;28;19944;-81
2024/02/21 07:25:46;;;;;;;;;;;8.90;99.90;;;;;;4990034;28;20322;-80
2024/02/21 07:28:16;;;;;;;;;;;8.90;99.90;;;;;;5007401;28;19921;-81
2024/02/21 07:30:42;;;;;;;;;;;9.00;99.90;;;;;;4994089;28;19922;-81
2024/02/21 07:33:08;;;;;;;;;;;8.90;99.90;;;;;;4963805;28;19926;-81
2024/02/21 07:35:33;;;;;;;;;;;8.90;99.90;;;;;;4971789;28;19998;-79
2024/02/21 07:38:00;;;;;;;;;;;8.90;99.90;;;;;;4996981;28;19940;-80
2024/02/21 07:40:25;;;;;;;;;;;8.90;99.90;;;;;;4978160;28;19917;-80
2024/02/21 07:42:51;;;;;;;;;;;8.90;99.90;;;;;;4995118;28;19921;-81
2024/02/21 07:45:18;;;;;;;;;;;8.90;99.90;;;;;;4982932;28;19978;-81
2024/02/21 07:47:43;;;;;;;;;;;8.90;99.90;;;;;;4972925;28;19924;-82
2024/02/21 07:50:09;;;;;;;;;;;8.90;99.90;;;;;;4960764;28;19910;-81
2024/02/21 07:52:35;;;;;;;;;;;8.90;99.90;;;;;;5005105;28;19929;-82
2024/02/21 07:55:01;;;;;;;;;;;9.00;99.90;;;;;;4978639;28;19922;-81
2024/02/21 07:57:26;;;;;;;;;;;8.90;99.90;;;;;;4989122;28;20045;-81
2024/02/21 07:59:52;;;;;;;;;;;8.90;99.90;;;;;;4982101;28;19914;-81
2024/02/21 08:02:18;;;;;;;;;;;8.90;99.90;;;;;;4960711;28;19914;-81
2024/02/21 08:04:44;;;;;;;;;;;8.90;99.90;;;;;;4956816;28;20052;-81
2024/02/21 08:07:09;;;;;;;;;;;8.90;99.90;;;;;;4995839;28;19937;-81
2024/02/21 08:09:37;;;;;;;;;;;8.90;99.90;;;;;;4981740;28;19922;-81
2024/02/21 08:12:05;;;;;;;;;;;8.90;99.90;;;;;;4999253;28;19918;-82
2024/02/21 08:14:31;;;;;;;;;;;9.00;99.90;;;;;;4996400;28;20322;-82
2024/02/21 08:16:57;;;;;;;;;;;9.00;99.90;;;;;;4990483;28;19914;-81
2024/02/21 08:19:23;;;;;;;;;;;9.00;99.90;;;;;;4964926;28;19914;-80
2024/02/21 08:21:48;;;;;;;;;;;9.00;99.90;;;;;;4975466;28;19914;-80
2024/02/21 08:24:17;;;;;;;;;;;9.00;99.90;;;;;;4952431;28;19914;-82
2024/02/21 08:26:44;;;;;;;;;;;9.00;99.90;;;;;;4968464;28;20004;-81
2024/02/21 08:29:11;;;;;;;;;;;9.00;99.90;;;;;;4959790;28;19972;-80
2024/02/21 08:31:37;;;;;;;;;;;9.00;99.90;;;;;;4997171;28;19918;-81
2024/02/21 08:34:03;;;;;;;;;;;9.10;99.90;;;;;;4992124;28;19941;-82
2024/02/21 08:36:30;;;;;;;;;;;9.10;99.90;;;;;;4991397;28;19922;-81
2024/02/21 08:38:57;;;;;;;;;;;9.10;99.90;;;;;;4993034;28;19924;-81
2024/02/21 08:41:26;;;;;;;;;;;9.00;99.90;;;;;;4994989;28;19941;-82
2024/02/21 08:43:53;;;;;;;;;;;9.10;99.90;;;;;;4993544;28;19929;-82
2024/02/21 08:46:40;;;;;;;;;;;9.10;99.90;;;;;;4981004;28;20343;-82
2024/02/21 08:49:06;;;;;;;;;;;9.10;99.90;;;;;;4984692;28;19922;-81
2024/02/21 08:51:31;;;;;;;;;;;9.20;99.90;;;;;;4991866;28;19918;-82
2024/02/21 08:53:58;;;;;;;;;;;9.20;99.90;;;;;;4996164;28;19917;-80
2024/02/21 08:56:24;;;;;;;;;;;9.20;99.90;;;;;;4974911;28;19949;-82
2024/02/21 08:58:50;;;;;;;;;;;9.10;99.90;;;;;;4983288;28;19898;-81
2024/02/21 09:01:15;;;;;;;;;;;9.20;99.90;;;;;;4979759;28;19922;-81
2024/02/21 09:03:41;;;;;;;;;;;9.20;99.90;;;;;;4990731;28;19925;-81
2024/02/21 09:06:07;;;;;;;;;;;9.20;99.90;;;;;;4974614;28;19926;-81
2024/02/21 09:08:33;;;;;;;;;;;9.20;99.90;;;;;;4984737;28;19922;-81
2024/02/21 09:10:59;;;;;;;;;;;9.20;99.90;;;;;;4959919;28;19914;-82
2024/02/21 09:13:25;;;;;;;;;;;9.20;99.90;;;;;;5010966;28;20373;-81
2024/02/21 09:15:53;;;;;;;;;;;9.20;99.90;;;;;;4996855;28;19928;-81
2024/02/21 09:18:19;;;;;;;;;;;9.20;99.90;;;;;;4992827;28;19917;-82
2024/02/21 09:20:45;;;;;;;;;;;9.30;99.90;;;;;;4978180;28;19918;-81
2024/02/21 09:23:11;;;;;;;;;;;9.30;99.90;;;;;;4966273;28;19902;-81
2024/02/21 09:25:37;;;;;;;;;;;9.30;99.90;;;;;;4979530;28;19954;-81
2024/02/21 09:28:06;;;;;;;;;;;9.30;99.90;;;;;;4961812;28;19918;-81
2024/02/21 09:30:34;;;;;;;;;;;9.40;99.90;;;;;;4998067;28;19939;-81
2024/02/21 09:33:01;;;;;;;;;;;9.40;99.90;;;;;;4995362;28;20007;-82
2024/02/21 09:35:27;;;;;;;;;;;9.50;99.90;;;;;;4992968;28;19912;-81
2024/02/21 09:37:53;;;;;;;;;;;9.50;99.90;;;;;;5008434;28;19913;-81
2024/02/21 09:40:19;;;;;;;;;;;9.50;99.90;;;;;;4994879;28;19902;-81
2024/02/21 09:42:45;;;;;;;;;;;9.60;99.90;;;;;;4992613;28;20000;-80
2024/02/21 09:45:16;;;;;;;;;;;9.60;99.90;;;;;;4974692;28;19913;-80
2024/02/21 09:47:45;;;;;;;;;;;9.60;99.90;;;;;;4984634;28;19926;-80
2024/02/21 09:50:11;;;;;;;;;;;9.60;99.90;;;;;;4974349;28;19932;-80
2024/02/21 09:52:37;;;;;;;;;;;9.60;99.90;;;;;;4992428;28;19918;-81
2024/02/21 09:55:04;;;;;;;;;;;9.70;99.90;;;;;;4997331;28;19902;-81
2024/02/21 09:57:32;;;;;;;;;;;9.80;99.90;;;;;;4970469;28;19925;-82
2024/02/21 09:59:59;;;;;;;;;;;9.80;99.90;;;;;;4966960;28;19898;-81
2024/02/21 10:02:24;;;;;;;;;;;9.80;99.90;;;;;;4986387;28;19914;-81
2024/02/21 10:04:50;;;;;;;;;;;9.80;99.90;;;;;;4958508;28;19976;-81
2024/02/21 10:07:15;;;;;;;;;;;9.90;99.90;;;;;;4953154;28;19914;-81
2024/02/21 10:09:42;;;;;;;;;;;9.90;99.90;;;;;;4968757;28;19914;-80
2024/02/21 10:12:09;;;;;;;;;;;10.00;99.90;;;;;;5005525;28;20010;-80
2024/02/21 10:14:35;;;;;;;;;;;10.00;99.90;;;;;;4971997;28;19928;-80
2024/02/21 10:17:01;;;;;;;;;;;10.00;99.90;;;;;;5005175;28;19918;-79
2024/02/21 10:19:27;;;;;;;;;;;10.10;99.90;;;;;;4982773;28;19925;-81
2024/02/21 10:22:07;;;;;;;;;;;10.10;99.90;;;;;;4960311;28;19917;-82
2024/02/21 10:24:33;;;;;;;;;;;10.10;99.90;;;;;;4966065;28;20441;-82
2024/02/21 10:27:03;;;;;;;;;;;10.10;99.90;;;;;;4970473;28;19922;-81
2024/02/21 10:29:32;;;;;;;;;;;10.00;99.90;;;;;;4957375;28;19906;-82
2024/02/21 10:32:05;;;;;;;;;;;10.00;99.90;;;;;;4975096;28;19914;-82
2024/02/21 10:34:31;;;;;;;;;;;10.00;99.90;;;;;;4996013;28;19922;-80
2024/02/21 10:37:03;;;;;;;;;;;9.90;99.90;;;;;;4969908;28;20378;-80
2024/02/21 10:39:29;;;;;;;;;;;9.90;99.90;;;;;;4989023;28;19952;-81
2024/02/21 10:41:58;;;;;;;;;;;9.80;99.90;;;;;;4978332;28;19937;-81
2024/02/21 10:44:24;;;;;;;;;;;9.80;99.90;;;;;;4979490;28;19939;-81
2024/02/21 10:46:49;;;;;;;;;;;9.90;99.90;;;;;;4995553;28;19961;-81
2024/02/21 10:49:25;;;;;;;;;;;9.80;99.90;;;;;;4982016;28;20011;-81
2024/02/21 10:51:52;;;;;;;;;;;9.90;99.90;;;;;;4976861;28;19953;-80
2024/02/21 10:54:21;;;;;;;;;;;9.80;99.90;;;;;;4975467;28;20009;-81
2024/02/21 10:56:47;;;;;;;;;;;9.80;99.90;;;;;;5007655;28;19921;-81
2024/02/21 10:59:13;;;;;;;;;;;9.80;99.90;;;;;;4975808;28;19914;-81
2024/02/21 11:01:39;;;;;;;;;;;9.80;99.90;;;;;;4967768;28;20576;-81
2024/02/21 11:04:05;;;;;;;;;;;9.80;99.90;;;;;;4992849;28;19928;-81
2024/02/21 11:06:31;;;;;;;;;;;9.80;99.90;;;;;;4996334;28;20009;-81
2024/02/21 11:09:00;;;;;;;;;;;9.90;99.90;;;;;;4988254;28;19918;-81
2024/02/21 11:11:26;;;;;;;;;;;9.90;99.90;;;;;;4983785;28;19922;-82
2024/02/21 11:13:52;;;;;;;;;;;10.00;99.90;;;;;;4987872;28;19929;-80
2024/02/21 11:16:23;;;;;;;;;;;9.90;99.90;;;;;;4990750;28;20119;-81
2024/02/21 11:18:49;;;;;;;;;;;10.00;99.90;;;;;;4992513;28;19928;-81
2024/02/21 11:21:15;;;;;;;;;;;10.20;99.90;;;;;;4996380;28;19914;-81
2024/02/21 11:23:41;;;;;;;;;;;10.40;99.90;;;;;;4970202;28;19928;-81
2024/02/21 11:26:07;;;;;;;;;;;10.50;99.90;;;;;;4963660;28;19913;-80
2024/02/21 11:28:33;;;;;;;;;;;10.50;99.90;;;;;;4990888;28;19921;-80
2024/02/21 11:31:13;;;;;;;;;;;10.60;99.90;;;;;;4990562;28;19924;-80
2024/02/21 11:33:39;;;;;;;;;;;10.60;99.90;;;;;;4990904;28;19921;-81
2024/02/21 11:36:05;;;;;;;;;;;10.60;99.90;;;;;;4984744;28;20000;-80
2024/02/21 11:38:31;;;;;;;;;;;10.60;99.90;;;;;;4970316;28;19917;-80
2024/02/21 11:40:58;;;;;;;;;;;10.70;99.90;;;;;;4985098;28;19956;-80
2024/02/21 11:43:26;;;;;;;;;;;10.70;99.90;;;;;;4984934;28;19940;-80
2024/02/21 11:46:01;;;;;;;;;;;10.70;99.90;;;;;;4985826;28;19917;-80
2024/02/21 11:48:31;;;;;;;;;;;10.70;99.90;;;;;;4991398;28;19999;-80
2024/02/21 11:50:58;;;;;;;;;;;10.80;99.90;;;;;;4989963;28;19948;-81
2024/02/21 11:53:30;;;;;;;;;;;10.90;99.90;;;;;;4972526;28;21241;-80
2024/02/21 11:55:56;;;;;;;;;;;11.00;99.90;;;;;;4986969;28;19988;-80
2024/02/21 11:58:22;;;;;;;;;;;11.10;99.90;;;;;;4975244;28;19913;-81
2024/02/21 12:00:51;;;;;;;;;;;11.20;99.90;;;;;;4968934;28;20239;-80
2024/02/21 12:03:17;;;;;;;;;;;11.20;99.90;;;;;;4973671;28;19922;-79
2024/02/21 12:05:46;;;;;;;;;;;11.10;99.90;;;;;;4972371;28;19924;-80
2024/02/21 12:08:13;;;;;;;;;;;11.10;99.90;;;;;;4966523;28;19929;-77
2024/02/21 12:10:44;;;;;;;;;;;11.10;99.90;;;;;;4966713;28;19918;-78
2024/02/21 12:13:12;;;;;;;;;;;11.30;99.90;;;;;;4998588;28;19918;-80
2024/02/21 12:15:41;;;;;;;;;;;11.30;99.90;;;;;;4973697;28;19981;-80
2024/02/21 12:18:17;;;;;;;;;;;11.40;99.90;;;;;;4984747;28;19925;-79
2024/02/21 12:20:44;;;;;;;;;;;11.30;99.90;;;;;;4968775;28;19981;-78
2024/02/21 12:23:12;;;;;;;;;;;11.30;99.90;;;;;;4999223;28;19918;-81
2024/02/21 12:25:39;;;;;;;;;;;11.20;99.90;;;;;;4968288;28;20314;-80
2024/02/21 12:28:05;;;;;;;;;;;11.20;99.90;;;;;;4985693;28;19933;-80
2024/02/21 12:30:35;;;;;;;;;;;11.20;99.90;;;;;;4967532;28;19918;-80
2024/02/21 12:33:03;;;;;;;;;;;11.20;99.90;;;;;;4982475;28;19917;-80
2024/02/21 12:35:31;;;;;;;;;;;11.20;99.90;;;;;;4970503;28;20318;-80
2024/02/21 12:37:59;;;;;;;;;;;11.20;99.90;;;;;;4983891;28;20939;-81
2024/02/21 12:40:32;;;;;;;;;;;11.30;99.90;;;;;;4966369;28;20328;-80
2024/02/21 12:43:03;;;;;;;;;;;11.30;99.90;;;;;;4968626;28;19928;-81
2024/02/21 12:45:36;;;;;;;;;;;11.30;99.90;;;;;;4984820;28;19914;-80
2024/02/21 12:48:07;;;;;;;;;;;11.30;99.90;;;;;;4966720;28;19925;-80
2024/02/21 12:50:35;;;;;;;;;;;11.20;99.90;;;;;;5005329;28;20004;-80
2024/02/21 12:53:01;;;;;;;;;;;11.30;99.90;;;;;;4989025;28;19948;-81
2024/02/21 12:55:27;;;;;;;;;;;11.20;99.90;;;;;;4969371;28;19913;-80
2024/02/21 12:58:05;;;;;;;;;;;11.20;99.90;;;;;;4992428;28;19945;-81
2024/02/21 13:00:35;;;;;;;;;;;11.10;99.90;;;;;;4968601;28;19913;-80
2024/02/21 13:03:09;;;;;;;;;;;11.00;99.90;;;;;;4988272;28;19917;-81
2024/02/21 13:05:38;;;;;;;;;;;10.90;99.90;;;;;;4991214;28;19964;-81
2024/02/21 13:08:11;;;;;;;;;;;10.90;99.90;;;;;;4988652;28;19946;-80
2024/02/21 13:10:40;;;;;;;;;;;10.90;99.90;;;;;;4971278;28;19957;-80
2024/02/21 13:13:12;;;;;;;;;;;10.90;99.90;;;;;;4993122;28;19929;-80
2024/02/21 13:15:43;;;;;;;;;;;10.90;99.90;;;;;;4989663;28;19944;-81
2024/02/21 13:18:12;;;;;;;;;;;11.00;99.90;;;;;;5002043;28;19918;-80
2024/02/21 13:20:47;;;;;;;;;;;11.00;99.90;;;;;;4976599;28;19968;-80
2024/02/21 13:23:13;;;;;;;;;;;11.00;99.90;;;;;;4988972;28;19913;-81
2024/02/21 13:25:38;;;;;;;;;;;11.00;99.90;;;;;;4974722;28;20219;-81
2024/02/21 13:28:07;;;;;;;;;;;11.00;99.90;;;;;;4977190;28;19956;-80
2024/02/21 13:30:32;;;;;;;;;;;11.20;99.90;;;;;;4970932;28;19898;-81
2024/02/21 13:32:58;;;;;;;;;;;11.30;99.90;;;;;;4978990;28;19926;-81
2024/02/21 13:35:25;;;;;;;;;;;11.40;99.90;;;;;;4974530;28;20041;-81
2024/02/21 13:38:00;;;;;;;;;;;11.50;99.90;;;;;;4987677;28;19929;-81
2024/02/21 13:40:39;;;;;;;;;;;11.50;99.90;;;;;;4990848;28;19976;-80
2024/02/21 13:43:04;;;;;;;;;;;11.50;99.90;;;;;;4967786;28;19948;-81
2024/02/21 13:45:30;;;;;;;;;;;11.50;99.90;;;;;;4987460;28;19922;-81
2024/02/21 13:47:59;;;;;;;;;;;11.50;99.90;;;;;;5010242;28;19937;-81
2024/02/21 13:50:29;;;;;;;;;;;11.40;99.90;;;;;;4973310;28;19927;-80
2024/02/21 13:52:55;;;;;;;;;;;11.40;99.90;;;;;;4995465;28;19913;-82
2024/02/21 13:55:22;;;;;;;;;;;11.30;99.90;;;;;;4977062;28;19944;-81
2024/02/21 13:57:47;;;;;;;;;;;11.40;99.90;;;;;;4975219;28;20393;-81
2024/02/21 14:00:13;;;;;;;;;;;11.20;99.90;;;;;;4984660;28;19932;-82
2024/02/21 14:02:41;;;;;;;;;;;11.20;99.90;;;;;;4988034;28;20723;-82
2024/02/21 14:05:07;;;;;;;;;;;11.10;99.90;;;;;;4994559;28;19920;-81
2024/02/21 14:07:35;;;;;;;;;;;11.10;99.90;;;;;;4977345;28;19922;-82
2024/02/21 14:10:01;;;;;;;;;;;11.00;99.90;;;;;;4990244;28;19929;-82
2024/02/21 14:12:29;;;;;;;;;;;11.00;99.90;;;;;;4967779;28;19921;-81
2024/02/21 14:15:13;;;;;;;;;;;11.00;99.90;;;;;;4988754;28;20371;-81
2024/02/21 14:17:39;;;;;;;;;;;10.90;99.90;;;;;;4972158;28;19901;-81
2024/02/21 14:20:05;;;;;;;;;;;10.80;99.90;;;;;;4959928;28;19921;-81
2024/02/21 14:22:30;;;;;;;;;;;10.80;99.90;;;;;;4991761;28;19924;-81